Bartonville, Illinois
Current Conditions -  °F | °C
As of 5:54 AM on Saturday 01 Nov 2014 (Local Time) from KPIA Reporting Station
Clear Clear  
Wind Chill: 24°   Ceiling: Unl
Heat Index: 30°   Visibility: 10mi
Dew Point: 19°   Wind: 6mph
Humidity: 64%   Direction: 350°N
Pressure: 30.44"   Gusts: NA
Location:  40.6465°N, 89.6859°W
Report Text: KPIA 011054Z 35005KT 10SM CLR M01/M07 A3044 RMK AO2 SLP314 T10111072
Loading
Personal Weather Stations






























Interactive Weather Map
Tropical Storm Tracking
New forecast layout! Learn more

10-Day Weather Forecast

Advertisements
Track Severe Weather on mobile